createdAt,value
2024-04-15T00:00:57.550Z,1558.00
2024-04-15T00:01:57.446Z,1542.00
2024-04-15T00:02:57.529Z,1547.00
2024-04-15T00:03:57.523Z,1540.00
2024-04-15T00:04:57.518Z,1546.00
2024-04-15T00:05:57.492Z,1529.00
2024-04-15T00:06:57.502Z,1544.00
2024-04-15T00:07:57.496Z,1544.00
2024-04-15T00:08:57.490Z,1538.00
2024-04-15T00:09:57.508Z,1541.00
2024-04-15T00:10:57.572Z,1533.00
2024-04-15T00:11:57.478Z,1533.00
2024-04-15T00:12:57.539Z,1534.00
2024-04-15T00:13:57.477Z,1532.00
2024-04-15T00:14:57.484Z,1532.00
2024-04-15T00:15:57.652Z,1529.00
2024-04-15T00:16:57.565Z,1532.00
2024-04-15T00:17:57.559Z,1513.00
2024-04-15T00:18:57.474Z,1526.00
2024-04-15T00:19:57.481Z,1532.00
2024-04-15T00:20:57.489Z,1530.00
2024-04-15T00:21:57.511Z,1523.00
2024-04-15T00:22:57.496Z,1526.00
2024-04-15T00:23:57.474Z,1513.00
2024-04-15T00:24:57.522Z,1516.00
2024-04-15T00:25:57.519Z,1529.00
2024-04-15T00:26:57.536Z,1519.00
2024-04-15T00:27:57.610Z,1517.00
2024-04-15T00:28:57.502Z,1520.00
2024-04-15T00:29:57.494Z,1519.00
2024-04-15T00:30:57.559Z,1521.00
2024-04-15T00:31:57.503Z,1519.00
2024-04-15T00:32:57.563Z,1520.00
2024-04-15T00:33:57.577Z,1519.00
2024-04-15T00:34:57.561Z,1518.00
2024-04-15T00:35:57.561Z,1518.00
2024-04-15T00:36:57.638Z,1522.00
2024-04-15T00:37:57.663Z,1526.00
2024-04-15T00:38:57.668Z,1526.00
2024-04-15T00:39:57.763Z,1526.00
2024-04-15T00:40:57.673Z,1525.00
2024-04-15T00:41:57.680Z,1525.00
2024-04-15T00:42:57.768Z,1519.00
2024-04-15T00:43:57.732Z,1526.00
2024-04-15T00:44:57.745Z,1524.00
2024-04-15T00:45:57.763Z,1524.00
2024-04-15T00:46:57.829Z,1522.00
2024-04-15T00:47:57.812Z,1519.00
2024-04-15T00:48:57.907Z,1520.00
2024-04-15T00:49:57.869Z,1522.00
2024-04-15T00:50:57.868Z,1514.00
2024-04-15T00:51:57.927Z,1507.00
2024-04-15T00:52:57.963Z,1513.00
2024-04-15T00:53:57.947Z,1500.00
2024-04-15T00:54:58.099Z,1488.00
2024-04-15T00:55:58.008Z,1478.00
2024-04-15T00:56:58.034Z,1474.00
2024-04-15T00:57:58.206Z,1466.00
2024-04-15T00:58:58.064Z,1455.00
2024-04-15T00:59:58.103Z,1462.00
2024-04-15T01:00:58.162Z,1451.00
2024-04-15T01:01:58.238Z,1448.00
2024-04-15T01:02:58.211Z,1443.00
2024-04-15T01:03:58.272Z,1438.00
2024-04-15T01:04:58.236Z,1444.00
2024-04-15T01:05:58.245Z,1439.00
2024-04-15T01:06:58.281Z,1433.00
2024-04-15T01:07:58.316Z,1422.00
2024-04-15T01:08:58.372Z,1411.00
2024-04-15T01:09:58.414Z,1408.00
2024-04-15T01:11:00.831Z,1403.00
2024-04-15T01:11:58.403Z,1401.00
2024-04-15T01:12:58.418Z,1396.00
2024-04-15T01:13:58.413Z,1407.00
2024-04-15T01:14:58.367Z,1392.00
2024-04-15T01:15:58.441Z,1373.00
2024-04-15T01:16:58.355Z,1394.00
2024-04-15T01:17:58.437Z,1404.00
2024-04-15T01:18:58.420Z,1402.00
2024-04-15T01:19:58.380Z,1405.00
2024-04-15T01:20:58.447Z,1402.00
2024-04-15T01:21:58.426Z,1405.00
2024-04-15T01:22:58.378Z,1412.00
2024-04-15T01:23:58.410Z,1406.00
2024-04-15T01:24:58.413Z,1401.00
2024-04-15T01:25:58.406Z,1391.00
2024-04-15T01:26:58.380Z,1402.00
2024-04-15T01:27:58.421Z,1393.00
2024-04-15T01:28:58.387Z,1401.00
2024-04-15T01:29:58.380Z,1397.00
2024-04-15T01:30:58.420Z,1393.00
2024-04-15T01:31:58.435Z,1398.00
2024-04-15T01:32:58.398Z,1385.00
2024-04-15T01:33:58.417Z,1382.00
2024-04-15T01:34:58.394Z,1390.00
2024-04-15T01:35:58.373Z,1383.00
2024-04-15T01:36:58.416Z,1385.00
2024-04-15T01:37:58.413Z,1374.00
2024-04-15T01:38:58.386Z,1377.00
2024-04-15T01:39:58.435Z,1372.00
2024-04-15T01:40:58.397Z,1358.00
2024-04-15T01:41:58.412Z,1347.00
2024-04-15T01:42:58.439Z,1346.00
2024-04-15T01:43:58.411Z,1335.00
2024-04-15T01:44:58.379Z,1324.00
2024-04-15T01:45:58.413Z,1324.00
2024-04-15T01:46:58.399Z,1315.00
2024-04-15T01:47:58.437Z,1304.00
2024-04-15T01:48:58.453Z,1295.00
2024-04-15T01:49:58.413Z,1293.00
2024-04-15T01:50:58.427Z,1291.00
2024-04-15T01:51:58.455Z,1288.00
2024-04-15T01:52:58.412Z,1283.00
2024-04-15T01:53:58.427Z,1276.00
2024-04-15T01:54:58.520Z,1275.00
2024-04-15T01:55:59.366Z,1275.00
2024-04-15T01:56:58.416Z,1273.00
2024-04-15T01:57:58.457Z,1273.00
2024-04-15T01:58:58.409Z,1273.00
2024-04-15T01:59:58.418Z,1281.00
2024-04-15T02:00:58.529Z,1267.00
2024-04-15T02:01:58.416Z,1276.00
2024-04-15T02:02:58.446Z,1279.00
2024-04-15T02:03:58.516Z,1269.00
2024-04-15T02:04:58.401Z,1281.00
2024-04-15T02:05:58.416Z,1288.00
2024-04-15T02:06:58.458Z,1283.00
2024-04-15T02:07:58.431Z,1288.00
2024-04-15T02:08:58.435Z,1280.00
2024-04-15T02:09:58.423Z,1276.00
2024-04-15T02:10:58.482Z,1276.00
2024-04-15T02:11:58.414Z,1278.00
2024-04-15T02:12:58.448Z,1275.00
2024-04-15T02:13:58.438Z,1271.00
2024-04-15T02:14:58.450Z,1274.00
2024-04-15T02:15:58.442Z,1274.00
2024-04-15T02:16:58.423Z,1270.00
2024-04-15T02:17:58.529Z,1263.00
2024-04-15T02:18:58.456Z,1264.00
2024-04-15T02:19:58.425Z,1263.00
2024-04-15T02:20:58.425Z,1257.00
2024-04-15T02:21:58.453Z,1254.00
2024-04-15T02:22:58.434Z,1248.00
2024-04-15T02:23:58.436Z,1250.00
2024-04-15T02:24:58.469Z,1248.00
2024-04-15T02:25:58.446Z,1252.00
2024-04-15T02:26:58.419Z,1242.00
2024-04-15T02:27:58.460Z,1248.00
2024-04-15T02:28:58.435Z,1249.00
2024-04-15T02:29:58.413Z,1250.00
2024-04-15T02:30:58.433Z,1242.00
2024-04-15T02:31:58.450Z,1236.00
2024-04-15T02:32:58.502Z,1238.00
2024-04-15T02:33:58.467Z,1237.00
2024-04-15T02:34:58.413Z,1240.00
2024-04-15T02:35:58.436Z,1237.00
2024-04-15T02:36:58.448Z,1235.00
2024-04-15T02:37:58.441Z,1229.00
2024-04-15T02:38:58.481Z,1239.00
2024-04-15T02:39:58.508Z,1240.00
2024-04-15T02:40:58.486Z,1243.00
2024-04-15T02:41:58.460Z,1242.00
2024-04-15T02:42:58.496Z,1233.00
2024-04-15T02:43:58.450Z,1245.00
2024-04-15T02:44:58.473Z,1245.00
2024-04-15T02:45:58.524Z,1252.00
2024-04-15T02:46:58.574Z,1268.00
2024-04-15T02:47:58.702Z,1271.00
2024-04-15T02:48:58.704Z,1271.00
2024-04-15T02:49:58.624Z,1272.00
2024-04-15T02:50:58.719Z,1274.00
2024-04-15T02:51:58.771Z,1276.00
2024-04-15T02:52:58.759Z,1268.00
2024-04-15T02:53:58.790Z,1265.00
2024-04-15T02:54:58.846Z,1248.00
2024-04-15T02:55:58.892Z,1255.00
2024-04-15T02:56:58.892Z,1251.00
2024-04-15T02:57:58.983Z,1244.00
2024-04-15T02:58:58.961Z,1239.00
2024-04-15T02:59:58.987Z,1243.00
2024-04-15T03:00:59.159Z,1226.00
2024-04-15T03:01:59.038Z,1221.00
2024-04-15T03:02:59.111Z,1224.00
2024-04-15T03:03:59.217Z,1247.00
2024-04-15T03:04:59.219Z,1252.00
2024-04-15T03:05:59.125Z,1244.00
2024-04-15T03:06:59.217Z,1242.00
2024-04-15T03:07:59.228Z,1246.00
2024-04-15T03:08:59.237Z,1230.00
2024-04-15T03:09:59.310Z,1243.00
2024-04-15T03:10:59.308Z,1238.00
2024-04-15T03:11:59.326Z,1238.00
2024-04-15T03:12:59.410Z,1237.00
2024-04-15T03:13:59.398Z,1236.00
2024-04-15T03:14:59.430Z,1222.00
2024-04-15T03:16:05.733Z,1220.00
2024-04-15T03:17:00.557Z,1221.00
2024-04-15T03:17:59.629Z,1212.00
2024-04-15T03:18:59.500Z,1201.00
2024-04-15T03:19:59.485Z,1185.00
2024-04-15T03:21:00.311Z,1188.00
2024-04-15T03:21:59.508Z,1178.00
2024-04-15T03:22:59.499Z,1162.00
2024-04-15T03:23:59.473Z,1171.00
2024-04-15T03:24:59.479Z,1158.00
2024-04-15T03:25:59.477Z,1147.00
2024-04-15T03:26:59.464Z,1144.00
2024-04-15T03:27:59.532Z,1143.00
2024-04-15T03:28:59.498Z,1139.00
2024-04-15T03:29:59.435Z,1136.00
2024-04-15T03:30:59.503Z,1139.00
2024-04-15T03:31:59.473Z,1129.00
2024-04-15T03:32:59.501Z,1137.00
2024-04-15T03:33:59.524Z,1139.00
2024-04-15T03:34:59.497Z,1142.00
2024-04-15T03:35:59.488Z,1148.00
2024-04-15T03:36:59.570Z,1155.00
2024-04-15T03:37:59.596Z,1159.00
2024-04-15T03:38:59.601Z,1162.00
2024-04-15T03:39:59.688Z,1164.00
2024-04-15T03:40:59.700Z,1171.00
2024-04-15T03:41:59.780Z,1175.00
2024-04-15T03:42:59.827Z,1175.00
2024-04-15T03:43:59.793Z,1174.00
2024-04-15T03:44:59.848Z,1176.00
2024-04-15T03:45:59.911Z,1182.00
2024-04-15T03:46:59.939Z,1179.00
2024-04-15T03:47:59.993Z,1185.00
2024-04-15T03:49:00.029Z,1187.00
2024-04-15T03:49:59.999Z,1193.00
2024-04-15T03:51:00.054Z,1191.00
2024-04-15T03:52:00.096Z,1188.00
2024-04-15T03:53:00.128Z,1191.00
2024-04-15T03:54:00.224Z,1192.00
2024-04-15T03:55:00.290Z,1196.00
2024-04-15T03:56:00.217Z,1193.00
2024-04-15T03:57:00.259Z,1199.00
2024-04-15T03:58:00.338Z,1199.00
2024-04-15T03:59:00.352Z,1204.00
2024-04-15T04:00:00.372Z,1208.00
2024-04-15T04:01:00.424Z,1217.00
2024-04-15T04:02:00.401Z,1224.00
2024-04-15T04:03:00.516Z,1217.00
2024-04-15T04:04:00.631Z,1225.00
2024-04-15T04:05:00.657Z,1232.00
2024-04-15T04:06:10.128Z,1237.00
2024-04-15T04:07:01.663Z,1237.00
2024-04-15T04:08:00.594Z,1237.00
2024-04-15T04:09:00.605Z,1240.00
2024-04-15T04:10:00.671Z,1238.00
2024-04-15T04:11:00.603Z,1237.00
2024-04-15T04:12:00.603Z,1232.00
2024-04-15T04:13:00.575Z,1229.00
2024-04-15T04:14:00.550Z,1230.00
2024-04-15T04:15:00.581Z,1216.00
2024-04-15T04:16:00.613Z,1228.00
2024-04-15T04:17:00.587Z,1233.00
2024-04-15T04:18:00.759Z,1236.00
2024-04-15T04:19:00.679Z,1252.00
2024-04-15T04:20:00.582Z,1246.00
2024-04-15T04:21:00.582Z,1254.00
2024-04-15T04:22:00.630Z,1254.00
2024-04-15T04:23:00.591Z,1261.00
2024-04-15T04:24:00.630Z,1260.00
2024-04-15T04:25:07.827Z,600.00
2024-04-15T04:26:07.778Z,600.00
2024-04-15T04:27:07.792Z,600.00
2024-04-15T04:28:07.901Z,600.00
2024-04-15T04:29:07.805Z,600.00
2024-04-15T04:30:07.816Z,601.00
2024-04-15T04:31:15.062Z,600.00
2024-04-15T04:32:15.043Z,600.00
2024-04-15T04:33:15.036Z,600.00
2024-04-15T04:34:15.064Z,600.00
2024-04-15T04:35:15.022Z,600.00
2024-04-15T04:36:15.031Z,602.00
2024-04-15T04:37:15.132Z,603.00
2024-04-15T04:38:15.038Z,607.00
2024-04-15T04:39:14.998Z,606.00
2024-04-15T04:40:15.097Z,612.00
2024-04-15T04:41:15.013Z,611.00
2024-04-15T04:42:15.027Z,618.00
2024-04-15T04:43:15.172Z,623.00
2024-04-15T04:44:15.033Z,628.00
2024-04-15T04:45:15.030Z,627.00
2024-04-15T04:46:15.163Z,633.00
2024-04-15T04:47:15.129Z,634.00
2024-04-15T04:48:15.023Z,638.00
2024-04-15T04:49:15.150Z,645.00
2024-04-15T04:50:15.109Z,658.00
2024-04-15T04:51:15.045Z,674.00
2024-04-15T04:52:15.095Z,694.00
2024-04-15T04:53:15.042Z,705.00
2024-04-15T04:54:17.306Z,721.00
2024-04-15T04:55:15.339Z,735.00
2024-04-15T04:56:15.275Z,753.00
2024-04-15T04:57:15.275Z,756.00
2024-04-15T04:58:15.410Z,768.00
2024-04-15T04:59:15.345Z,770.00
2024-04-15T05:00:15.350Z,778.00
2024-04-15T05:02:44.398Z,794.00
2024-04-15T05:03:21.755Z,798.00
2024-04-15T05:04:21.849Z,816.00
2024-04-15T05:05:21.715Z,842.00
2024-04-15T05:06:21.721Z,867.00
2024-04-15T05:07:21.706Z,893.00
2024-04-15T05:08:21.675Z,905.00
2024-04-15T05:09:22.659Z,905.00
2024-04-15T05:10:21.754Z,895.00
2024-04-15T05:11:21.708Z,889.00
2024-04-15T05:12:21.724Z,886.00
2024-04-15T05:13:21.746Z,895.00
2024-04-15T05:14:21.669Z,885.00
2024-04-15T05:15:21.710Z,883.00
2024-04-15T05:16:21.715Z,884.00
2024-04-15T05:17:21.724Z,877.00
2024-04-15T05:18:21.805Z,887.00
2024-04-15T05:19:21.805Z,884.00
2024-04-15T05:20:21.830Z,892.00
2024-04-15T05:21:21.735Z,896.00
2024-04-15T05:22:21.753Z,895.00
2024-04-15T05:23:21.687Z,885.00
2024-04-15T05:24:21.753Z,894.00
2024-04-15T05:25:21.778Z,896.00
2024-04-15T05:26:21.698Z,905.00
2024-04-15T05:27:21.698Z,912.00
2024-04-15T05:28:21.792Z,925.00
2024-04-15T05:29:21.807Z,929.00
2024-04-15T05:30:21.787Z,923.00
2024-04-15T05:31:21.754Z,923.00
2024-04-15T05:32:21.815Z,923.00
2024-04-15T05:33:22.733Z,924.00
2024-04-15T05:34:22.272Z,925.00
2024-04-15T05:35:21.745Z,927.00
2024-04-15T05:36:24.691Z,915.00
2024-04-15T05:37:21.781Z,920.00
2024-04-15T05:38:21.750Z,907.00
2024-04-15T05:39:22.202Z,899.00
2024-04-15T05:40:21.830Z,900.00
2024-04-15T05:41:21.760Z,869.00
2024-04-15T05:42:21.778Z,867.00
2024-04-15T05:43:21.861Z,849.00
2024-04-15T05:44:22.195Z,844.00
2024-04-15T05:45:43.819Z,847.00
2024-04-15T05:47:50.707Z,847.00
2024-04-15T05:48:28.256Z,852.00
2024-04-15T05:49:28.017Z,872.00
2024-04-15T05:50:27.979Z,899.00
2024-04-15T05:51:27.989Z,933.00
2024-04-15T05:52:28.765Z,969.00
2024-04-15T05:53:28.018Z,988.00
2024-04-15T05:54:28.334Z,994.00
2024-04-15T05:55:28.013Z,999.00
2024-04-15T05:56:27.983Z,993.00
2024-04-15T05:57:27.982Z,998.00
2024-04-15T05:58:28.101Z,1003.00
2024-04-15T05:59:28.314Z,999.00
2024-04-15T06:00:28.076Z,991.00
2024-04-15T06:01:28.078Z,983.00
2024-04-15T06:02:28.151Z,984.00
2024-04-15T06:03:28.130Z,986.00
2024-04-15T06:04:28.348Z,985.00
2024-04-15T06:05:28.190Z,978.00
2024-04-15T06:06:28.201Z,966.00
2024-04-15T06:07:28.243Z,967.00
2024-04-15T06:08:28.306Z,952.00
2024-04-15T06:09:28.320Z,940.00
2024-04-15T06:10:28.365Z,932.00
2024-04-15T06:11:28.398Z,941.00
2024-04-15T06:12:28.351Z,936.00
2024-04-15T06:13:28.356Z,942.00
2024-04-15T06:14:28.783Z,942.00
2024-04-15T06:15:28.443Z,949.00
2024-04-15T06:16:28.597Z,940.00
2024-04-15T06:17:28.573Z,954.00
2024-04-15T06:18:28.490Z,960.00
2024-04-15T06:19:28.591Z,961.00
2024-04-15T06:20:28.642Z,967.00
2024-04-15T06:21:28.735Z,968.00
2024-04-15T06:22:29.073Z,952.00
2024-04-15T06:23:28.840Z,947.00
2024-04-15T06:24:29.311Z,925.00
2024-04-15T06:25:28.966Z,938.00
2024-04-15T06:26:28.954Z,931.00
2024-04-15T06:27:29.041Z,945.00
2024-04-15T06:28:29.162Z,947.00
2024-04-15T06:29:29.214Z,941.00
2024-04-15T06:30:29.167Z,945.00
2024-04-15T06:31:29.230Z,939.00
2024-04-15T06:32:29.447Z,929.00
2024-04-15T06:33:29.437Z,915.00
2024-04-15T06:34:29.416Z,898.00
2024-04-15T06:35:29.506Z,889.00
2024-04-15T06:36:29.850Z,885.00
2024-04-15T06:37:29.722Z,894.00
2024-04-15T06:38:29.693Z,881.00
2024-04-15T06:39:29.801Z,865.00
2024-04-15T06:40:29.811Z,885.00
2024-04-15T06:41:29.719Z,872.00
2024-04-15T06:42:29.740Z,874.00
2024-04-15T06:43:29.875Z,868.00
2024-04-15T06:44:29.805Z,870.00
2024-04-15T06:45:29.941Z,873.00
2024-04-15T06:46:29.909Z,874.00
2024-04-15T06:47:29.876Z,886.00
2024-04-15T06:48:29.906Z,890.00
2024-04-15T06:49:30.695Z,898.00
2024-04-15T06:50:29.938Z,891.00
2024-04-15T06:51:30.437Z,890.00
2024-04-15T06:52:30.107Z,873.00
2024-04-15T06:53:30.132Z,874.00
2024-04-15T06:54:30.404Z,868.00
2024-04-15T06:55:30.319Z,870.00
2024-04-15T06:56:30.399Z,858.00
2024-04-15T06:57:30.461Z,851.00
2024-04-15T06:58:30.445Z,848.00
2024-04-15T06:59:30.549Z,862.00
2024-04-15T07:00:30.681Z,859.00
2024-04-15T07:01:31.970Z,865.00
2024-04-15T07:02:30.751Z,873.00
2024-04-15T07:03:30.881Z,895.00
2024-04-15T07:04:30.781Z,894.00
2024-04-15T07:05:30.740Z,900.00
2024-04-15T07:06:30.807Z,892.00
2024-04-15T07:07:30.873Z,908.00
2024-04-15T07:08:30.912Z,898.00
2024-04-15T07:09:32.385Z,897.00
2024-04-15T07:10:30.980Z,898.00
2024-04-15T07:11:31.105Z,903.00
2024-04-15T07:12:31.152Z,917.00
2024-04-15T07:13:31.118Z,904.00
2024-04-15T07:14:31.160Z,918.00
2024-04-15T07:15:31.686Z,920.00
2024-04-15T07:16:31.239Z,924.00
2024-04-15T07:17:31.240Z,924.00
2024-04-15T07:18:31.186Z,939.00
2024-04-15T07:19:31.220Z,943.00
2024-04-15T07:20:31.301Z,950.00
2024-04-15T07:21:31.426Z,944.00
2024-04-15T07:22:31.435Z,960.00
2024-04-15T07:23:31.490Z,962.00
2024-04-15T07:24:31.547Z,964.00
2024-04-15T07:25:31.681Z,973.00
2024-04-15T07:26:31.633Z,983.00
2024-04-15T07:27:31.671Z,998.00
2024-04-15T07:28:31.684Z,1003.00
2024-04-15T07:29:31.862Z,1006.00
2024-04-15T07:30:31.834Z,1019.00
2024-04-15T07:31:31.884Z,1026.00
2024-04-15T07:32:31.944Z,1041.00
2024-04-15T07:33:31.906Z,1078.00
2024-04-15T07:34:31.981Z,1090.00
2024-04-15T07:35:32.339Z,1100.00
2024-04-15T07:36:31.974Z,1100.00
2024-04-15T07:37:31.938Z,1101.00
2024-04-15T07:38:31.968Z,1102.00
2024-04-15T07:39:32.332Z,1099.00
2024-04-15T07:40:32.041Z,1086.00
2024-04-15T07:41:32.062Z,1068.00
2024-04-15T07:42:39.737Z,1066.00
2024-04-15T07:43:33.004Z,1060.00
2024-04-15T07:44:31.991Z,1040.00
2024-04-15T07:45:32.792Z,1037.00
2024-04-15T07:46:32.124Z,1030.00
2024-04-15T07:47:32.037Z,1014.00
2024-04-15T07:48:32.022Z,1009.00
2024-04-15T07:49:31.970Z,1007.00
2024-04-15T07:50:32.007Z,999.00
2024-04-15T07:51:32.026Z,1003.00
2024-04-15T07:52:31.981Z,1008.00
2024-04-15T07:53:31.995Z,1012.00
2024-04-15T07:54:32.063Z,1005.00
2024-04-15T07:55:32.097Z,1010.00
2024-04-15T07:56:31.988Z,1006.00
2024-04-15T07:57:31.954Z,1021.00
2024-04-15T07:58:32.021Z,1018.00
2024-04-15T07:59:31.986Z,1013.00
2024-04-15T08:00:31.994Z,1001.00
2024-04-15T08:01:32.095Z,997.00
2024-04-15T08:02:32.246Z,997.00
2024-04-15T08:03:32.116Z,993.00
2024-04-15T08:04:32.188Z,996.00
2024-04-15T08:05:32.133Z,981.00
2024-04-15T08:06:32.242Z,984.00
2024-04-15T08:07:32.272Z,991.00
2024-04-15T08:08:32.374Z,986.00
2024-04-15T08:09:32.339Z,975.00
2024-04-15T08:10:32.907Z,977.00
2024-04-15T08:11:32.423Z,975.00
2024-04-15T08:12:32.488Z,977.00
2024-04-15T08:13:32.531Z,977.00
2024-04-15T08:14:32.542Z,982.00
2024-04-15T08:15:32.746Z,976.00
2024-04-15T08:16:32.721Z,969.00
2024-04-15T08:17:33.155Z,971.00
2024-04-15T08:18:32.737Z,982.00
2024-04-15T08:19:32.841Z,982.00
2024-04-15T08:20:32.878Z,980.00
2024-04-15T08:21:32.931Z,976.00
2024-04-15T08:22:32.959Z,973.00
2024-04-15T08:23:32.973Z,975.00
2024-04-15T08:24:33.027Z,990.00
2024-04-15T08:25:33.147Z,982.00
2024-04-15T08:26:36.396Z,980.00
2024-04-15T08:27:33.160Z,981.00
2024-04-15T08:28:33.156Z,982.00
2024-04-15T08:29:33.164Z,986.00
2024-04-15T08:30:33.169Z,988.00
2024-04-15T08:31:33.139Z,1002.00
2024-04-15T08:32:33.257Z,1031.00
2024-04-15T08:33:33.206Z,1056.00
2024-04-15T08:34:33.200Z,1070.00
2024-04-15T08:35:33.386Z,1065.00
2024-04-15T08:36:33.169Z,1058.00
2024-04-15T08:37:33.191Z,1031.00
2024-04-15T08:38:33.174Z,1027.00
2024-04-15T08:39:33.190Z,1007.00
2024-04-15T08:40:33.359Z,1001.00
2024-04-15T08:41:33.198Z,996.00
2024-04-15T08:42:33.144Z,986.00
2024-04-15T08:43:33.218Z,982.00
2024-04-15T08:44:33.154Z,991.00
2024-04-15T08:45:33.179Z,1005.00
2024-04-15T08:46:33.254Z,1008.00
2024-04-15T08:47:33.238Z,1018.00
2024-04-15T08:48:33.180Z,1022.00
2024-04-15T08:49:33.226Z,1033.00
2024-04-15T08:50:33.383Z,1034.00
2024-04-15T08:51:33.218Z,1036.00
2024-04-15T08:52:33.176Z,1036.00
2024-04-15T08:53:33.191Z,1041.00
2024-04-15T08:54:33.223Z,1047.00
2024-04-15T08:55:33.457Z,1068.00
2024-04-15T08:56:33.212Z,1093.00
2024-04-15T08:57:33.207Z,1096.00
2024-04-15T08:58:33.228Z,1113.00
2024-04-15T08:59:33.218Z,1111.00
2024-04-15T09:00:35.402Z,1112.00
2024-04-15T09:01:33.261Z,1114.00
2024-04-15T09:02:33.223Z,1114.00
2024-04-15T09:03:33.358Z,1112.00
2024-04-15T09:04:33.345Z,1115.00
2024-04-15T09:05:33.303Z,1108.00
2024-04-15T09:06:33.266Z,1112.00
2024-04-15T09:07:33.230Z,1115.00
2024-04-15T09:08:33.185Z,1121.00
2024-04-15T09:09:55.852Z,1116.00
2024-04-15T09:10:33.263Z,1118.00
2024-04-15T09:11:33.241Z,1120.00
2024-04-15T09:12:33.278Z,1118.00
2024-04-15T09:13:33.219Z,1128.00
2024-04-15T09:14:35.520Z,1150.00
2024-04-15T09:15:33.238Z,1118.00
2024-04-15T09:16:33.967Z,1125.00
2024-04-15T09:17:33.262Z,1131.00
2024-04-15T09:18:33.287Z,1131.00
2024-04-15T09:19:33.207Z,1133.00
2024-04-15T09:20:43.336Z,1096.00
2024-04-15T09:21:34.235Z,1096.00
2024-04-15T09:22:33.258Z,1089.00
2024-04-15T09:23:33.218Z,1097.00
2024-04-15T09:24:33.334Z,1096.00
2024-04-15T09:25:33.281Z,1101.00
2024-04-15T09:26:33.316Z,1089.00
2024-04-15T09:27:33.209Z,1080.00
2024-04-15T09:28:33.493Z,1088.00
2024-04-15T09:29:33.236Z,1093.00
2024-04-15T09:30:33.311Z,1085.00
2024-04-15T09:31:33.310Z,1075.00
2024-04-15T09:32:33.371Z,1071.00
2024-04-15T09:33:33.270Z,1069.00
2024-04-15T09:34:33.258Z,1066.00
2024-04-15T09:35:33.287Z,1065.00
2024-04-15T09:36:33.224Z,1061.00
2024-04-15T09:37:33.549Z,1058.00
2024-04-15T09:38:33.248Z,1058.00
2024-04-15T09:39:33.296Z,1049.00
2024-04-15T09:40:33.329Z,1049.00
2024-04-15T09:41:33.317Z,1079.00
2024-04-15T09:42:33.278Z,1129.00
2024-04-15T09:43:33.361Z,1183.00
2024-04-15T09:44:33.441Z,1194.00
2024-04-15T09:45:33.540Z,1194.00
2024-04-15T09:46:33.384Z,1160.00
2024-04-15T09:47:33.482Z,1146.00
2024-04-15T09:48:33.350Z,1098.00
2024-04-15T09:49:33.354Z,1106.00
2024-04-15T09:50:33.376Z,1094.00
2024-04-15T09:51:33.363Z,1088.00
2024-04-15T09:52:33.478Z,1065.00
2024-04-15T09:53:33.452Z,1028.00
2024-04-15T09:54:33.449Z,999.00
2024-04-15T09:55:33.974Z,994.00
2024-04-15T09:56:33.653Z,984.00
2024-04-15T09:57:33.636Z,965.00
2024-04-15T09:58:56.195Z,984.00
2024-04-15T09:59:33.655Z,986.00
2024-04-15T10:00:33.665Z,996.00
2024-04-15T10:01:33.873Z,1013.00
2024-04-15T10:02:33.681Z,1034.00
2024-04-15T10:03:33.645Z,1061.00
2024-04-15T10:04:34.121Z,1075.00
2024-04-15T10:05:33.615Z,1077.00
2024-04-15T10:06:33.642Z,1079.00
2024-04-15T10:07:33.620Z,1106.00
2024-04-15T10:08:33.610Z,1136.00
2024-04-15T10:09:33.721Z,1095.00
2024-04-15T10:10:33.861Z,1115.00
2024-04-15T10:11:33.721Z,1111.00
2024-04-15T10:12:33.632Z,1092.00
2024-04-15T10:13:33.640Z,1067.00
2024-04-15T10:14:33.581Z,1055.00
2024-04-15T10:15:33.608Z,1062.00
2024-04-15T10:16:38.484Z,1039.00
2024-04-15T10:17:34.710Z,1039.00
2024-04-15T10:18:33.628Z,1041.00
2024-04-15T10:19:33.698Z,1043.00
2024-04-15T10:20:33.646Z,1040.00
2024-04-15T10:21:33.653Z,1034.00
2024-04-15T10:22:33.758Z,1029.00
2024-04-15T10:23:33.736Z,1037.00
2024-04-15T10:24:33.653Z,1048.00
2024-04-15T10:25:35.266Z,1068.00
2024-04-15T10:26:33.670Z,1071.00
2024-04-15T10:27:33.640Z,1048.00
2024-04-15T10:28:33.702Z,1078.00
2024-04-15T10:29:33.689Z,1078.00
2024-04-15T10:30:33.980Z,1064.00
2024-04-15T10:31:33.685Z,1082.00
2024-04-15T10:32:34.285Z,1077.00
2024-04-15T10:33:33.694Z,1095.00
2024-04-15T10:34:33.680Z,1104.00
2024-04-15T10:35:34.308Z,1111.00
2024-04-15T10:36:34.877Z,1125.00
2024-04-15T10:37:34.012Z,1130.00
2024-04-15T10:38:33.648Z,1152.00
2024-04-15T10:39:34.342Z,1154.00
2024-04-15T10:40:34.195Z,1125.00
2024-04-15T10:41:33.996Z,1103.00
2024-04-15T10:42:33.878Z,1141.00
2024-04-15T10:43:33.855Z,1132.00
2024-04-15T10:44:34.493Z,1132.00
2024-04-15T10:45:33.908Z,1138.00
2024-04-15T10:46:34.429Z,1126.00
2024-04-15T10:47:34.854Z,1150.00
2024-04-15T10:48:33.948Z,1117.00
2024-04-15T10:49:34.097Z,1119.00
2024-04-15T10:50:33.989Z,1133.00
2024-04-15T10:51:34.405Z,1127.00
2024-04-15T10:52:34.369Z,1125.00
2024-04-15T10:53:35.301Z,1118.00
2024-04-15T10:54:34.832Z,1107.00
2024-04-15T10:55:34.118Z,1115.00
2024-04-15T10:56:34.057Z,1121.00
2024-04-15T10:57:34.383Z,1133.00
2024-04-15T10:58:34.092Z,1124.00
2024-04-15T10:59:34.182Z,1125.00
2024-04-15T11:00:34.248Z,1150.00
2024-04-15T11:01:34.259Z,1165.00
2024-04-15T11:02:35.149Z,1186.00
2024-04-15T11:03:57.506Z,1176.00
2024-04-15T11:04:34.414Z,1178.00
2024-04-15T11:05:34.304Z,1182.00
2024-04-15T11:06:34.308Z,1182.00
2024-04-15T11:07:34.356Z,1142.00
2024-04-15T11:08:34.395Z,1152.00
2024-04-15T11:09:34.389Z,1139.00
2024-04-15T11:10:34.494Z,1134.00
2024-04-15T11:11:34.461Z,1109.00
2024-04-15T11:12:34.448Z,1122.00
2024-04-15T11:13:34.499Z,1116.00
2024-04-15T11:14:34.461Z,1117.00
2024-04-15T11:15:34.466Z,1121.00
2024-04-15T11:16:34.495Z,1117.00
2024-04-15T11:17:34.563Z,1115.00
2024-04-15T11:18:34.502Z,1104.00
2024-04-15T11:19:34.503Z,1096.00
2024-04-15T11:20:34.497Z,1103.00
2024-04-15T11:21:34.928Z,1102.00
2024-04-15T11:22:35.897Z,1108.00
2024-04-15T11:23:34.505Z,1110.00
2024-04-15T11:24:34.488Z,1095.00
2024-04-15T11:25:34.949Z,1101.00
2024-04-15T11:26:34.962Z,1076.00
2024-04-15T11:27:35.333Z,1077.00
2024-04-15T11:28:34.780Z,1064.00
2024-04-15T11:29:41.466Z,1079.00
2024-04-15T11:30:35.611Z,1079.00
2024-04-15T11:31:34.996Z,1082.00
2024-04-15T11:32:34.856Z,1075.00
2024-04-15T11:33:34.807Z,1048.00
2024-04-15T11:34:34.651Z,1031.00
2024-04-15T11:35:34.586Z,997.00
2024-04-15T11:36:35.025Z,986.00
2024-04-15T11:37:34.630Z,987.00
2024-04-15T11:38:34.657Z,968.00
2024-04-15T11:39:34.589Z,946.00
2024-04-15T11:40:34.673Z,916.00
2024-04-15T11:41:34.968Z,906.00
2024-04-15T11:42:34.631Z,866.00
2024-04-15T11:43:34.701Z,845.00
2024-04-15T11:44:34.635Z,806.00
2024-04-15T11:45:34.639Z,774.00
2024-04-15T11:46:34.677Z,752.00
2024-04-15T11:47:34.922Z,750.00
2024-04-15T11:48:34.706Z,751.00
2024-04-15T11:49:35.180Z,739.00
2024-04-15T11:50:34.808Z,748.00
2024-04-15T11:51:34.923Z,781.00
2024-04-15T11:52:34.989Z,795.00
2024-04-15T11:53:35.009Z,818.00
2024-04-15T11:54:35.018Z,835.00
2024-04-15T11:55:34.968Z,845.00
2024-04-15T11:56:35.021Z,852.00
2024-04-15T11:57:35.053Z,852.00
2024-04-15T11:58:35.106Z,853.00
2024-04-15T11:59:35.054Z,860.00
2024-04-15T12:00:35.108Z,848.00
2024-04-15T12:02:59.760Z,842.00
2024-04-15T12:03:35.108Z,844.00
2024-04-15T12:04:35.132Z,857.00
2024-04-15T12:05:35.222Z,875.00
2024-04-15T12:06:35.098Z,893.00
2024-04-15T12:07:35.114Z,917.00
2024-04-15T12:08:35.117Z,927.00
2024-04-15T12:09:35.113Z,910.00
2024-04-15T12:10:35.186Z,895.00
2024-04-15T12:11:35.111Z,887.00
2024-04-15T12:12:35.128Z,879.00
2024-04-15T12:13:35.085Z,863.00
2024-04-15T12:14:35.079Z,855.00
2024-04-15T12:15:35.095Z,846.00
2024-04-15T12:16:35.231Z,847.00
2024-04-15T12:17:35.120Z,852.00